LEBG

Burgos Airport

Airport
ICAO code
LEBG
IATA Code
RGS
Summary
ICAO Region
EUR
ICAO Territory
Location

, Castilla y Leon

Serving
Burgos
Elevation
2945 ft
Coordinates
42° 21' 27" N , 3° 37' 15" W
Metar
Observation
LEBG 050100Z AUTO 12003KT 080V150 9999 FEW013 OVC039 04/03 Q1013
Station
Burgos / Villafria
Date/Time
2022-12-05 01:00:00
Wind direction
120°
Wind speed
03 kts
Lowest cloud amount
few clouds
Temperature
4°C
Dew point
3°C
Humidity
93%
QNH
1013 hPa
Weather condition
n/a

Runways

Designator Length Width Surface Rops
6/24 1339 30 ASP No/No

Airport map

Aerial View

SKYbrary Partners:

Safety knowledge contributed by: